createdAt,value
2024-02-29T00:00:21.226Z,88.81
2024-02-29T00:00:55.059Z,88.54
2024-02-29T00:01:27.001Z,88.41
2024-02-29T00:01:59.079Z,88.93
2024-02-29T00:02:30.908Z,88.82
2024-02-29T00:03:03.651Z,88.80
2024-02-29T00:03:35.635Z,88.64
2024-02-29T00:04:07.805Z,88.68
2024-02-29T00:04:39.606Z,88.63
2024-02-29T00:05:13.441Z,88.78
2024-02-29T00:05:45.920Z,89.06
2024-02-29T00:06:17.713Z,89.59
2024-02-29T00:06:49.545Z,89.59
2024-02-29T00:07:22.597Z,89.96
2024-02-29T00:07:54.586Z,90.29
2024-02-29T00:08:28.064Z,89.81
2024-02-29T00:09:00.027Z,89.88
2024-02-29T00:09:32.044Z,90.22
2024-02-29T00:10:04.134Z,90.23
2024-02-29T00:10:36.375Z,90.21
2024-02-29T00:11:08.183Z,89.92
2024-02-29T00:11:40.049Z,90.12
2024-02-29T00:12:11.834Z,90.19
2024-02-29T00:12:43.925Z,90.35
2024-02-29T00:13:15.777Z,90.30
2024-02-29T00:13:47.639Z,90.00
2024-02-29T00:14:20.125Z,90.29
2024-02-29T00:14:52.907Z,90.09
2024-02-29T00:15:24.686Z,89.86
2024-02-29T00:15:56.531Z,90.19
2024-02-29T00:16:28.363Z,89.96
2024-02-29T00:17:02.056Z,90.11
2024-02-29T00:17:34.161Z,90.09
2024-02-29T00:18:06.217Z,89.53
2024-02-29T00:18:38.131Z,89.98
2024-02-29T00:19:10.289Z,89.64
2024-02-29T00:19:42.164Z,89.68
2024-02-29T00:20:13.912Z,89.76
2024-02-29T00:20:45.736Z,89.59
2024-02-29T00:21:17.580Z,89.74
2024-02-29T00:21:49.450Z,89.44
2024-02-29T00:22:21.322Z,89.03
2024-02-29T00:22:53.255Z,89.17
2024-02-29T00:23:25.103Z,89.09
2024-02-29T00:23:56.932Z,89.23
2024-02-29T00:24:28.831Z,89.05
2024-02-29T00:25:00.844Z,89.04
2024-02-29T00:25:32.741Z,89.01
2024-02-29T00:26:04.816Z,89.10
2024-02-29T00:26:36.661Z,89.12
2024-02-29T00:27:08.646Z,89.17
2024-02-29T00:27:40.704Z,89.29
2024-02-29T00:28:12.884Z,89.58
2024-02-29T00:28:44.868Z,89.76
2024-02-29T00:29:16.769Z,89.74
2024-02-29T00:29:48.590Z,89.55
2024-02-29T00:30:20.748Z,89.52
2024-02-29T00:30:52.729Z,89.77
2024-02-29T00:31:25.703Z,89.57
2024-02-29T00:32:01.861Z,89.69
2024-02-29T00:32:35.029Z,89.48
2024-02-29T00:33:07.178Z,89.99
2024-02-29T00:33:40.873Z,89.98
2024-02-29T00:34:13.480Z,90.08
2024-02-29T00:34:45.337Z,90.25
2024-02-29T00:35:17.117Z,90.10
2024-02-29T00:35:49.795Z,90.37
2024-02-29T00:36:24.244Z,90.28
2024-02-29T00:36:56.554Z,90.76
2024-02-29T00:37:29.762Z,90.93
2024-02-29T00:38:01.657Z,90.82
2024-02-29T00:38:33.426Z,90.63
2024-02-29T00:39:11.790Z,91.08
2024-02-29T00:39:46.795Z,90.95
2024-02-29T00:40:18.664Z,91.15
2024-02-29T00:40:50.532Z,91.15
2024-02-29T00:41:22.552Z,91.13
2024-02-29T00:41:54.342Z,91.30
2024-02-29T00:42:26.165Z,91.10
2024-02-29T00:42:58.491Z,91.19
2024-02-29T00:43:30.313Z,91.48
2024-02-29T00:44:02.154Z,91.68
2024-02-29T00:44:34.239Z,91.57
2024-02-29T00:45:06.462Z,91.86
2024-02-29T00:45:38.301Z,91.75
2024-02-29T00:46:10.271Z,92.13
2024-02-29T00:46:42.252Z,92.46
2024-02-29T00:47:14.050Z,92.75
2024-02-29T00:47:45.917Z,92.64
2024-02-29T00:48:17.848Z,93.06
2024-02-29T00:48:49.671Z,93.00
2024-02-29T00:49:21.795Z,93.34
2024-02-29T00:49:53.585Z,93.44
2024-02-29T00:50:25.710Z,93.44
2024-02-29T00:50:57.561Z,94.27
2024-02-29T00:51:29.537Z,94.04
2024-02-29T00:52:01.438Z,94.38
2024-02-29T00:52:33.246Z,94.76
2024-02-29T00:53:05.100Z,94.68
2024-02-29T00:53:36.937Z,94.86
2024-02-29T00:54:09.577Z,95.10
2024-02-29T00:54:41.795Z,94.85
2024-02-29T00:55:14.346Z,95.11
2024-02-29T00:55:46.162Z,95.46
2024-02-29T00:56:18.077Z,95.51
2024-02-29T00:56:49.932Z,95.83
2024-02-29T00:57:21.737Z,95.66
2024-02-29T00:57:53.518Z,95.50
2024-02-29T00:58:25.359Z,95.86
2024-02-29T00:58:57.127Z,95.70
2024-02-29T00:59:28.912Z,95.69
2024-02-29T01:00:00.746Z,95.80
2024-02-29T01:00:32.794Z,95.82
2024-02-29T01:01:04.962Z,96.17
2024-02-29T01:01:36.910Z,96.16
2024-02-29T01:02:08.795Z,96.18
2024-02-29T01:02:40.606Z,96.37
2024-02-29T01:03:12.510Z,96.36
2024-02-29T01:03:44.345Z,96.51
2024-02-29T01:04:16.208Z,96.53
2024-02-29T01:04:48.039Z,96.52
2024-02-29T01:05:19.945Z,96.66
2024-02-29T01:05:52.001Z,96.94
2024-02-29T01:06:23.823Z,96.96
2024-02-29T01:06:57.260Z,96.97
2024-02-29T01:07:29.206Z,96.97
2024-02-29T01:08:01.006Z,97.03
2024-02-29T01:08:32.923Z,97.08
2024-02-29T01:09:05.518Z,96.92
2024-02-29T01:09:37.427Z,96.97
2024-02-29T01:10:12.910Z,97.13
2024-02-29T01:10:44.839Z,97.34
2024-02-29T01:11:18.038Z,97.03
2024-02-29T01:11:49.982Z,97.20
2024-02-29T01:12:21.933Z,97.45
2024-02-29T01:12:53.785Z,97.14
2024-02-29T01:13:25.566Z,97.18
2024-02-29T01:13:57.340Z,97.11
2024-02-29T01:14:29.178Z,97.47
2024-02-29T01:15:01.002Z,97.36
2024-02-29T01:15:32.817Z,97.36
2024-02-29T01:16:04.943Z,97.27
2024-02-29T01:16:36.793Z,97.01
2024-02-29T01:17:08.577Z,97.47
2024-02-29T01:17:44.769Z,97.21
2024-02-29T01:18:16.806Z,97.24
2024-02-29T01:18:48.706Z,97.73
2024-02-29T01:19:20.698Z,97.47
2024-02-29T01:19:52.485Z,97.55
2024-02-29T01:20:24.249Z,97.39
2024-02-29T01:20:56.057Z,97.50
2024-02-29T01:21:27.919Z,97.56
2024-02-29T01:22:00.320Z,97.75
2024-02-29T01:22:32.357Z,97.82
2024-02-29T01:23:04.212Z,97.61
2024-02-29T01:23:35.986Z,97.90
2024-02-29T01:24:07.811Z,97.87
2024-02-29T01:24:39.765Z,97.52
2024-02-29T01:25:12.810Z,97.60
2024-02-29T01:25:44.773Z,97.28
2024-02-29T01:26:16.550Z,97.61
2024-02-29T01:26:48.355Z,97.16
2024-02-29T01:27:20.435Z,97.50
2024-02-29T01:27:52.519Z,97.61
2024-02-29T01:28:24.338Z,97.67
2024-02-29T01:28:57.229Z,97.83
2024-02-29T01:29:29.221Z,97.51
2024-02-29T01:30:01.055Z,97.68
2024-02-29T01:30:32.895Z,97.45
2024-02-29T01:31:05.162Z,97.45
2024-02-29T01:31:37.140Z,97.45
2024-02-29T01:32:18.542Z,97.33
2024-02-29T01:32:54.603Z,97.13
2024-02-29T01:33:26.427Z,97.05
2024-02-29T01:33:58.283Z,97.01
2024-02-29T01:34:30.079Z,97.05
2024-02-29T01:35:04.235Z,97.19
2024-02-29T01:35:36.076Z,96.91
2024-02-29T01:36:07.924Z,96.96
2024-02-29T01:36:39.833Z,97.19
2024-02-29T01:37:11.995Z,96.98
2024-02-29T01:37:43.847Z,97.18
2024-02-29T01:38:15.658Z,97.08
2024-02-29T01:38:47.459Z,96.89
2024-02-29T01:39:19.320Z,97.10
2024-02-29T01:39:51.126Z,97.04
2024-02-29T01:40:23.328Z,96.94
2024-02-29T01:40:55.118Z,96.98
2024-02-29T01:41:27.045Z,97.05
2024-02-29T01:41:58.895Z,97.10
2024-02-29T01:42:30.947Z,96.83
2024-02-29T01:43:03.940Z,96.84
2024-02-29T01:43:36.095Z,96.96
2024-02-29T01:44:07.877Z,97.00
2024-02-29T01:44:53.859Z,96.94
2024-02-29T01:45:25.694Z,97.13
2024-02-29T01:46:15.353Z,97.03
2024-02-29T01:46:47.211Z,96.97
2024-02-29T01:47:18.971Z,97.14
2024-02-29T01:47:50.764Z,97.21
2024-02-29T01:48:22.760Z,96.96
2024-02-29T01:48:55.895Z,97.09
2024-02-29T01:49:28.263Z,96.73
2024-02-29T01:50:05.029Z,97.05
2024-02-29T01:50:38.024Z,97.27
2024-02-29T01:51:13.974Z,97.27
2024-02-29T01:51:46.454Z,97.23
2024-02-29T01:52:19.668Z,97.45
2024-02-29T01:52:51.886Z,97.43
2024-02-29T01:53:23.726Z,97.35
2024-02-29T01:53:55.520Z,97.15
2024-02-29T01:54:27.549Z,97.36
2024-02-29T01:54:59.503Z,97.17
2024-02-29T01:55:31.606Z,97.11
2024-02-29T01:56:03.445Z,97.19
2024-02-29T01:56:35.271Z,97.31
2024-02-29T01:57:08.033Z,97.12
2024-02-29T01:57:41.121Z,97.03
2024-02-29T01:58:14.221Z,97.24
2024-02-29T01:58:46.388Z,97.13
2024-02-29T01:59:18.661Z,97.13
2024-02-29T01:59:51.169Z,97.23
2024-02-29T02:00:22.995Z,97.28
2024-02-29T02:00:55.001Z,97.33
2024-02-29T02:01:27.107Z,97.54
2024-02-29T02:01:59.138Z,97.48
2024-02-29T02:02:31.000Z,97.27
2024-02-29T02:03:02.831Z,97.52
2024-02-29T02:03:35.281Z,97.31
2024-02-29T02:04:07.146Z,97.47
2024-02-29T02:04:38.976Z,97.30
2024-02-29T02:05:10.871Z,97.48
2024-02-29T02:05:42.769Z,97.52
2024-02-29T02:06:14.922Z,97.57
2024-02-29T02:06:46.896Z,97.69
2024-02-29T02:07:18.728Z,97.43
2024-02-29T02:07:50.850Z,97.38
2024-02-29T02:08:24.972Z,97.58
2024-02-29T02:08:57.738Z,97.69
2024-02-29T02:09:30.174Z,97.28
2024-02-29T02:10:02.991Z,97.64
2024-02-29T02:10:34.931Z,97.51
2024-02-29T02:11:06.787Z,97.64
2024-02-29T02:11:39.425Z,97.36
2024-02-29T02:12:14.021Z,97.53
2024-02-29T02:12:48.726Z,97.55
2024-02-29T02:13:20.654Z,97.43
2024-02-29T02:13:52.645Z,97.59
2024-02-29T02:14:24.509Z,97.78
2024-02-29T02:14:56.339Z,97.58
2024-02-29T02:15:28.158Z,97.64
2024-02-29T02:16:00.067Z,97.69
2024-02-29T02:16:32.421Z,97.64
2024-02-29T02:17:04.353Z,97.72
2024-02-29T02:17:36.203Z,98.02
2024-02-29T02:18:08.067Z,97.81
2024-02-29T02:18:40.068Z,97.89
2024-02-29T02:19:13.595Z,97.44
2024-02-29T02:19:45.580Z,97.08
2024-02-29T02:20:19.022Z,97.58
2024-02-29T02:20:51.099Z,97.44
2024-02-29T02:21:23.016Z,97.73
2024-02-29T02:21:54.929Z,97.57
2024-02-29T02:22:28.157Z,97.75
2024-02-29T02:22:59.936Z,97.66
2024-02-29T02:23:31.986Z,97.75
2024-02-29T02:24:03.811Z,97.58
2024-02-29T02:24:37.626Z,97.68
2024-02-29T02:25:09.637Z,97.60
2024-02-29T02:25:41.480Z,97.43
2024-02-29T02:26:13.240Z,97.46
2024-02-29T02:26:45.010Z,97.51
2024-02-29T02:27:16.886Z,97.10
2024-02-29T02:27:48.704Z,97.30
2024-02-29T02:28:20.482Z,97.41
2024-02-29T02:28:52.279Z,97.23
2024-02-29T02:29:24.053Z,97.22
2024-02-29T02:29:56.344Z,97.49
2024-02-29T02:30:28.125Z,97.18
2024-02-29T02:31:00.005Z,97.37
2024-02-29T02:31:31.797Z,97.14
2024-02-29T02:32:03.684Z,97.33
2024-02-29T02:32:36.754Z,97.01
2024-02-29T02:33:08.920Z,97.39
2024-02-29T02:33:40.835Z,97.10
2024-02-29T02:34:12.755Z,97.15
2024-02-29T02:34:44.613Z,97.37
2024-02-29T02:35:16.400Z,97.63
2024-02-29T02:35:48.816Z,97.78
2024-02-29T02:36:20.650Z,97.85
2024-02-29T02:36:52.518Z,97.87
2024-02-29T02:37:24.337Z,97.87
2024-02-29T02:37:56.174Z,97.99
2024-02-29T02:38:28.006Z,98.08
2024-02-29T02:38:59.808Z,98.02
2024-02-29T02:39:31.751Z,97.82
2024-02-29T02:40:07.558Z,97.87
2024-02-29T02:40:39.343Z,97.83
2024-02-29T02:41:12.627Z,98.18
2024-02-29T02:41:47.777Z,98.06
2024-02-29T02:42:19.589Z,98.17
2024-02-29T02:42:51.551Z,98.39
2024-02-29T02:43:23.338Z,98.08
2024-02-29T02:43:55.177Z,98.29
2024-02-29T02:44:26.959Z,98.25
2024-02-29T02:44:58.818Z,98.25
2024-02-29T02:45:30.707Z,98.35
2024-02-29T02:46:02.619Z,98.56
2024-02-29T02:46:34.462Z,98.51
2024-02-29T02:47:06.306Z,98.54
2024-02-29T02:47:38.132Z,98.60
2024-02-29T02:48:10.000Z,98.58
2024-02-29T02:48:41.819Z,98.68
2024-02-29T02:49:15.177Z,98.74
2024-02-29T02:49:47.045Z,98.61
2024-02-29T02:50:19.044Z,98.74
2024-02-29T02:50:53.020Z,98.58
2024-02-29T02:51:28.314Z,98.54
2024-02-29T02:52:00.177Z,98.41
2024-02-29T02:52:32.115Z,98.43
2024-02-29T02:53:05.368Z,98.53
2024-02-29T02:53:37.171Z,98.53
2024-02-29T02:54:08.989Z,98.44
2024-02-29T02:54:41.004Z,98.22
2024-02-29T02:55:13.367Z,98.45
2024-02-29T02:55:45.215Z,98.50
2024-02-29T02:56:16.998Z,98.20
2024-02-29T02:56:48.910Z,98.33
2024-02-29T02:57:20.784Z,98.43
2024-02-29T02:57:52.639Z,98.01
2024-02-29T02:58:24.420Z,97.95
2024-02-29T02:58:56.180Z,97.61
2024-02-29T02:59:29.774Z,97.72
2024-02-29T03:00:01.665Z,97.51
2024-02-29T03:00:33.750Z,97.62
2024-02-29T03:01:05.612Z,97.84
2024-02-29T03:01:38.152Z,97.32
2024-02-29T03:02:10.072Z,97.09
2024-02-29T03:02:41.985Z,97.13
2024-02-29T03:03:13.800Z,97.19
2024-02-29T03:03:45.819Z,96.51
2024-02-29T03:04:17.867Z,96.87
2024-02-29T03:04:49.792Z,96.78
2024-02-29T03:05:22.168Z,96.45
2024-02-29T03:05:53.979Z,96.72
2024-02-29T03:06:25.753Z,96.49
2024-02-29T03:06:57.625Z,96.81
2024-02-29T03:07:29.545Z,96.43
2024-02-29T03:08:02.592Z,96.65
2024-02-29T03:08:34.428Z,96.34
2024-02-29T03:09:08.940Z,96.40
2024-02-29T03:09:40.921Z,96.41
2024-02-29T03:10:13.097Z,96.39
2024-02-29T03:10:44.948Z,96.04
2024-02-29T03:11:16.770Z,95.96
2024-02-29T03:11:48.588Z,95.80
2024-02-29T03:12:20.459Z,95.84
2024-02-29T03:12:52.337Z,95.73
2024-02-29T03:13:24.179Z,95.68
2024-02-29T03:13:56.114Z,95.30
2024-02-29T03:14:28.259Z,95.59
2024-02-29T03:15:00.033Z,95.26
2024-02-29T03:15:31.893Z,95.34
2024-02-29T03:16:03.795Z,95.20
2024-02-29T03:16:36.411Z,95.30
2024-02-29T03:17:08.177Z,95.22
2024-02-29T03:17:40.069Z,95.08
2024-02-29T03:18:12.324Z,95.25
2024-02-29T03:18:44.438Z,95.07
2024-02-29T03:19:16.299Z,95.24
2024-02-29T03:19:48.148Z,94.93
2024-02-29T03:20:19.931Z,95.04
2024-02-29T03:20:51.736Z,95.02
2024-02-29T03:21:23.538Z,94.75
2024-02-29T03:21:55.397Z,94.64
2024-02-29T03:22:27.398Z,94.77
2024-02-29T03:22:59.169Z,94.73
2024-02-29T03:23:30.981Z,94.86
2024-02-29T03:24:02.779Z,94.32
2024-02-29T03:24:40.221Z,94.25
2024-02-29T03:25:12.405Z,94.23
2024-02-29T03:25:44.289Z,94.19
2024-02-29T03:26:16.366Z,94.35
2024-02-29T03:26:48.445Z,94.44
2024-02-29T03:27:20.223Z,94.40
2024-02-29T03:27:52.976Z,94.53
2024-02-29T03:28:24.815Z,94.42
2024-02-29T03:28:56.588Z,94.39
2024-02-29T03:29:29.936Z,94.33
2024-02-29T03:30:01.928Z,94.40
2024-02-29T03:30:34.023Z,94.10
2024-02-29T03:31:11.142Z,93.98
2024-02-29T03:31:46.663Z,93.98
2024-02-29T03:32:21.499Z,94.35
2024-02-29T03:32:54.968Z,94.35
2024-02-29T03:33:26.834Z,94.51
2024-02-29T03:33:59.009Z,94.43
2024-02-29T03:34:30.995Z,94.42
2024-02-29T03:35:05.286Z,94.50
2024-02-29T03:35:37.104Z,94.40
2024-02-29T03:36:09.850Z,94.60
2024-02-29T03:36:41.726Z,94.86
2024-02-29T03:37:14.877Z,95.10
2024-02-29T03:37:47.456Z,95.15
2024-02-29T03:38:19.471Z,95.09
2024-02-29T03:38:51.268Z,95.10
2024-02-29T03:39:23.039Z,95.05
2024-02-29T03:39:55.930Z,95.09
2024-02-29T03:40:27.851Z,95.26
2024-02-29T03:40:59.865Z,95.27
2024-02-29T03:41:32.393Z,95.09
2024-02-29T03:42:04.204Z,95.28
2024-02-29T03:42:36.033Z,95.20
2024-02-29T03:43:07.922Z,94.98
2024-02-29T03:43:39.773Z,95.17
2024-02-29T03:44:11.608Z,95.34
2024-02-29T03:44:45.077Z,95.51
2024-02-29T03:45:16.953Z,95.83
2024-02-29T03:45:48.767Z,95.98
2024-02-29T03:46:20.597Z,96.18
2024-02-29T03:46:52.569Z,95.93
2024-02-29T03:47:24.636Z,96.35
2024-02-29T03:47:56.683Z,96.13
2024-02-29T03:48:29.780Z,96.48
2024-02-29T03:49:01.748Z,96.39
2024-02-29T03:49:33.591Z,96.42
2024-02-29T03:50:06.144Z,96.49
2024-02-29T03:50:37.916Z,96.74
2024-02-29T03:51:09.799Z,96.80
2024-02-29T03:51:41.644Z,96.89
2024-02-29T03:52:13.540Z,96.88
2024-02-29T03:52:45.410Z,96.67
2024-02-29T03:53:17.200Z,96.88
2024-02-29T03:53:49.110Z,96.88
2024-02-29T03:54:20.926Z,96.79
2024-02-29T03:54:52.834Z,97.12
2024-02-29T03:55:24.776Z,97.34
2024-02-29T03:55:56.590Z,97.57
2024-02-29T03:56:28.381Z,97.78
2024-02-29T03:57:00.215Z,97.76
2024-02-29T03:57:32.035Z,97.69
2024-02-29T03:58:04.370Z,97.62
2024-02-29T03:58:36.185Z,97.50
2024-02-29T03:59:08.005Z,97.56
2024-02-29T03:59:39.813Z,97.61
2024-02-29T04:00:14.765Z,97.78
2024-02-29T04:00:46.908Z,97.83
2024-02-29T04:01:19.304Z,97.86
2024-02-29T04:01:51.944Z,98.30
2024-02-29T04:02:23.918Z,98.13
2024-02-29T04:02:55.780Z,98.34
2024-02-29T04:03:27.551Z,98.49
2024-02-29T04:03:59.412Z,98.68
2024-02-29T04:04:31.244Z,98.75
2024-02-29T04:05:03.072Z,98.89
2024-02-29T04:05:34.881Z,99.21
2024-02-29T04:06:09.664Z,99.69
2024-02-29T04:06:41.527Z,99.69
2024-02-29T04:07:13.463Z,99.86
2024-02-29T04:07:45.378Z,99.66
2024-02-29T04:08:17.220Z,99.90
2024-02-29T04:08:49.040Z,99.94
2024-02-29T04:09:20.957Z,100.00
2024-02-29T04:09:55.986Z,99.79
2024-02-29T04:10:31.453Z,99.83
2024-02-29T04:11:03.624Z,99.92
2024-02-29T04:11:35.478Z,100.00
2024-02-29T04:12:07.595Z,99.77
2024-02-29T04:12:39.434Z,99.78
2024-02-29T04:13:11.254Z,99.70
2024-02-29T04:13:43.092Z,99.81
2024-02-29T04:14:14.900Z,99.85
2024-02-29T04:14:46.725Z,100.00
2024-02-29T04:15:18.574Z,100.00
2024-02-29T04:15:50.547Z,100.00
2024-02-29T04:16:23.316Z,100.00
2024-02-29T04:16:55.344Z,100.00
2024-02-29T04:17:27.174Z,100.00
2024-02-29T04:18:00.095Z,100.00
2024-02-29T04:18:32.093Z,100.00
2024-02-29T04:19:04.993Z,100.00
2024-02-29T04:19:39.163Z,100.00
2024-02-29T04:20:11.418Z,100.00
2024-02-29T04:20:43.429Z,100.00
2024-02-29T04:21:15.213Z,100.00
2024-02-29T04:21:47.698Z,100.00
2024-02-29T04:22:19.755Z,100.00
2024-02-29T04:22:51.606Z,100.00
2024-02-29T04:23:23.388Z,100.00
2024-02-29T04:23:55.226Z,100.00
2024-02-29T04:24:27.387Z,100.00
2024-02-29T04:24:59.276Z,100.00
2024-02-29T04:25:31.124Z,100.00
2024-02-29T04:26:03.477Z,100.00
2024-02-29T04:26:35.252Z,100.00
2024-02-29T04:27:07.187Z,100.00
2024-02-29T04:27:39.386Z,100.00
2024-02-29T04:28:11.210Z,100.00
2024-02-29T04:28:43.066Z,100.00
2024-02-29T04:29:14.850Z,100.00
2024-02-29T04:29:49.530Z,99.97
2024-02-29T04:30:21.319Z,99.61
2024-02-29T04:30:53.206Z,99.70
2024-02-29T04:31:25.089Z,99.71
2024-02-29T04:31:56.903Z,99.85
2024-02-29T04:32:28.673Z,99.65
2024-02-29T04:33:01.507Z,99.51
2024-02-29T04:33:33.636Z,99.67
2024-02-29T04:34:05.472Z,99.71
2024-02-29T04:34:37.255Z,99.65
2024-02-29T04:35:10.555Z,99.77
2024-02-29T04:35:42.388Z,99.83
2024-02-29T04:36:14.168Z,99.64
2024-02-29T04:36:45.985Z,99.51
2024-02-29T04:37:17.991Z,99.56
2024-02-29T04:37:49.803Z,99.97
2024-02-29T04:38:21.568Z,99.80
2024-02-29T04:38:53.357Z,99.79
2024-02-29T04:39:25.234Z,99.93
2024-02-29T04:39:57.076Z,99.64
2024-02-29T04:40:30.484Z,99.50
2024-02-29T04:41:02.402Z,99.46
2024-02-29T04:41:34.227Z,99.31
2024-02-29T04:42:06.064Z,99.26
2024-02-29T04:42:38.209Z,99.27
2024-02-29T04:43:10.542Z,99.18
2024-02-29T04:43:42.361Z,99.27
2024-02-29T04:44:14.258Z,98.92
2024-02-29T04:44:46.097Z,99.02
2024-02-29T04:45:17.893Z,98.79
2024-02-29T04:45:49.807Z,98.80
2024-02-29T04:46:21.640Z,98.82
2024-02-29T04:46:53.463Z,99.15
2024-02-29T04:47:26.102Z,98.93
2024-02-29T04:47:58.595Z,98.96
2024-02-29T04:48:30.433Z,98.73
2024-02-29T04:49:02.276Z,98.57
2024-02-29T04:49:34.829Z,99.04
2024-02-29T04:50:06.837Z,98.90
2024-02-29T04:50:38.634Z,98.93
2024-02-29T04:51:10.736Z,99.10
2024-02-29T04:51:42.624Z,99.10
2024-02-29T04:52:14.776Z,98.88
2024-02-29T04:52:46.794Z,98.78
2024-02-29T04:53:18.842Z,98.60
2024-02-29T04:53:50.634Z,98.52
2024-02-29T04:54:22.416Z,98.42
2024-02-29T04:54:54.347Z,98.64
2024-02-29T04:55:26.130Z,98.39
2024-02-29T04:55:58.268Z,98.35
2024-02-29T04:56:30.069Z,98.62
2024-02-29T04:57:01.961Z,98.72
2024-02-29T04:57:33.817Z,98.56
2024-02-29T04:58:05.734Z,98.46
2024-02-29T04:58:37.641Z,98.23
2024-02-29T04:59:10.367Z,98.06
2024-02-29T04:59:42.259Z,97.95
2024-02-29T05:00:14.382Z,97.84
2024-02-29T05:00:46.326Z,98.08
2024-02-29T05:01:18.447Z,98.23
2024-02-29T05:01:51.485Z,97.95
2024-02-29T05:02:24.131Z,97.93
2024-02-29T05:02:56.281Z,97.96
2024-02-29T05:03:28.094Z,97.88
2024-02-29T05:03:59.944Z,97.72
2024-02-29T05:04:32.197Z,97.70
2024-02-29T05:05:05.124Z,97.44
2024-02-29T05:05:36.911Z,97.38
2024-02-29T05:06:14.870Z,97.37
2024-02-29T05:06:46.794Z,97.39
2024-02-29T05:07:18.760Z,97.29
2024-02-29T05:07:50.592Z,97.06
2024-02-29T05:08:23.194Z,96.95
2024-02-29T05:08:55.084Z,96.92
2024-02-29T05:09:27.069Z,96.79
2024-02-29T05:09:58.925Z,96.69
2024-02-29T05:10:30.829Z,96.65
2024-02-29T05:11:02.636Z,96.43
2024-02-29T05:11:36.696Z,96.52
2024-02-29T05:12:09.785Z,96.50
2024-02-29T05:12:41.608Z,96.44
2024-02-29T05:13:13.459Z,96.03
2024-02-29T05:13:45.326Z,96.16
2024-02-29T05:14:17.134Z,96.24
2024-02-29T05:14:48.947Z,95.92
2024-02-29T05:15:21.990Z,95.97
2024-02-29T05:15:53.880Z,96.17
2024-02-29T05:16:25.740Z,95.93
2024-02-29T05:16:57.555Z,95.83
2024-02-29T05:17:29.666Z,95.75
2024-02-29T05:18:01.684Z,95.60
2024-02-29T05:18:33.701Z,95.52
2024-02-29T05:19:05.586Z,95.48
2024-02-29T05:19:38.997Z,95.29
2024-02-29T05:20:11.545Z,95.31
2024-02-29T05:20:43.322Z,95.27
2024-02-29T05:21:15.220Z,95.22
2024-02-29T05:21:48.246Z,94.81
2024-02-29T05:22:21.061Z,95.18
2024-02-29T05:22:55.007Z,95.15
2024-02-29T05:23:26.892Z,95.07
2024-02-29T05:23:58.804Z,95.06
2024-02-29T05:24:31.101Z,94.97
2024-02-29T05:25:03.076Z,94.96
2024-02-29T05:25:36.721Z,94.91
2024-02-29T05:26:09.173Z,94.61
2024-02-29T05:26:41.052Z,94.90
2024-02-29T05:27:12.836Z,94.77
2024-02-29T05:27:44.725Z,94.60
2024-02-29T05:28:19.260Z,94.60
2024-02-29T05:28:51.188Z,94.77
2024-02-29T05:29:23.018Z,95.03
2024-02-29T05:29:54.789Z,95.24
2024-02-29T05:30:26.958Z,95.77
2024-02-29T05:30:59.347Z,96.17
2024-02-29T05:31:31.795Z,96.28
2024-02-29T05:32:03.636Z,96.56
2024-02-29T05:32:35.562Z,96.90
2024-02-29T05:33:07.493Z,97.39
2024-02-29T05:33:41.964Z,97.44
2024-02-29T05:34:15.302Z,97.59
2024-02-29T05:34:47.654Z,97.85
2024-02-29T05:35:19.455Z,97.58
2024-02-29T05:35:52.535Z,97.41
2024-02-29T05:36:24.377Z,97.63
2024-02-29T05:36:56.179Z,98.02
2024-02-29T05:37:28.338Z,98.07
2024-02-29T05:38:00.386Z,98.03
2024-02-29T05:38:32.346Z,98.18
2024-02-29T05:39:04.192Z,97.96
2024-02-29T05:39:36.218Z,97.93
2024-02-29T05:40:08.721Z,97.72
2024-02-29T05:40:40.732Z,97.63
2024-02-29T05:41:12.568Z,97.57
2024-02-29T05:41:44.523Z,97.38
2024-02-29T05:42:16.319Z,97.46
2024-02-29T05:42:48.136Z,96.96
2024-02-29T05:43:20.048Z,97.03
2024-02-29T05:43:51.905Z,96.75
2024-02-29T05:44:23.720Z,96.86
2024-02-29T05:44:55.531Z,96.59
2024-02-29T05:45:27.353Z,96.49
2024-02-29T05:45:59.285Z,96.14
2024-02-29T05:46:31.141Z,96.24
2024-02-29T05:47:03.343Z,96.22
2024-02-29T05:47:35.432Z,96.52
2024-02-29T05:48:07.660Z,96.22
2024-02-29T05:48:40.497Z,95.99
2024-02-29T05:49:12.515Z,96.01
2024-02-29T05:49:44.395Z,95.87
2024-02-29T05:50:16.201Z,95.76
2024-02-29T05:50:48.049Z,95.66
2024-02-29T05:51:20.070Z,95.51
2024-02-29T05:51:51.886Z,95.52
2024-02-29T05:52:23.788Z,95.30
2024-02-29T05:52:55.621Z,95.24
2024-02-29T05:53:27.644Z,95.13
2024-02-29T05:53:59.479Z,95.39
2024-02-29T05:54:31.404Z,94.92
2024-02-29T05:55:09.477Z,95.14
2024-02-29T05:55:41.676Z,95.17
2024-02-29T05:56:14.847Z,95.00
2024-02-29T05:56:46.783Z,94.88
2024-02-29T05:57:18.568Z,94.86
2024-02-29T05:57:50.344Z,94.34
2024-02-29T05:58:22.286Z,94.68
2024-02-29T05:58:54.143Z,94.34
2024-02-29T05:59:26.270Z,94.26
2024-02-29T05:59:58.213Z,94.23
2024-02-29T06:00:30.500Z,94.51
2024-02-29T06:01:03.184Z,94.44
2024-02-29T06:01:35.270Z,94.60
2024-02-29T06:02:07.274Z,94.40
2024-02-29T06:02:39.735Z,94.59
2024-02-29T06:03:11.589Z,94.76
2024-02-29T06:03:43.516Z,94.64
2024-02-29T06:04:15.364Z,94.72
2024-02-29T06:04:47.183Z,94.66
2024-02-29T06:05:20.081Z,94.38
2024-02-29T06:05:51.867Z,94.33
2024-02-29T06:06:23.646Z,94.48
2024-02-29T06:06:55.459Z,94.33
2024-02-29T06:07:27.764Z,94.46
2024-02-29T06:07:59.548Z,94.09
2024-02-29T06:08:31.628Z,94.23
2024-02-29T06:09:04.632Z,94.37
2024-02-29T06:09:36.544Z,94.09
2024-02-29T06:10:11.668Z,94.17
2024-02-29T06:10:44.017Z,94.55
2024-02-29T06:11:16.003Z,94.33
2024-02-29T06:11:49.045Z,94.09
2024-02-29T06:12:20.904Z,94.27
2024-02-29T06:12:52.779Z,94.19
2024-02-29T06:13:24.610Z,94.26
2024-02-29T06:13:57.517Z,94.21
2024-02-29T06:14:29.441Z,95.63
2024-02-29T06:15:01.337Z,99.98
2024-02-29T06:15:33.471Z,100.00
2024-02-29T06:16:05.480Z,100.00
2024-02-29T06:16:37.251Z,99.64
2024-02-29T06:17:09.524Z,97.95
2024-02-29T06:17:41.477Z,96.48
2024-02-29T06:18:14.628Z,95.62
2024-02-29T06:18:47.924Z,95.25
2024-02-29T06:19:19.899Z,94.63
2024-02-29T06:19:51.733Z,94.10
2024-02-29T06:20:23.866Z,94.14
2024-02-29T06:20:55.650Z,93.83
2024-02-29T06:21:27.476Z,93.44
2024-02-29T06:21:59.332Z,93.58
2024-02-29T06:22:31.124Z,93.14
2024-02-29T06:23:02.960Z,92.99
2024-02-29T06:23:34.780Z,93.02
2024-02-29T06:24:06.658Z,92.77
2024-02-29T06:24:38.527Z,92.54
2024-02-29T06:25:11.618Z,92.19
2024-02-29T06:25:44.373Z,92.29
2024-02-29T06:26:16.353Z,92.64
2024-02-29T06:26:48.518Z,92.92
2024-02-29T06:27:23.845Z,92.62
2024-02-29T06:27:55.759Z,93.00
2024-02-29T06:28:28.301Z,92.64
2024-02-29T06:29:00.271Z,92.69
2024-02-29T06:29:32.097Z,92.56
2024-02-29T06:30:05.389Z,92.42
2024-02-29T06:30:37.268Z,92.19
2024-02-29T06:31:10.082Z,92.18
2024-02-29T06:31:45.594Z,92.10
2024-02-29T06:32:17.357Z,92.14
2024-02-29T06:32:49.171Z,92.50
2024-02-29T06:33:20.986Z,92.72
2024-02-29T06:33:52.836Z,92.90
2024-02-29T06:34:24.891Z,92.72
2024-02-29T06:34:56.826Z,92.79
2024-02-29T06:35:29.641Z,92.98
2024-02-29T06:36:07.468Z,92.71
2024-02-29T06:36:41.280Z,92.92
2024-02-29T06:37:13.268Z,93.18
2024-02-29T06:37:45.291Z,92.88
2024-02-29T06:38:18.090Z,93.24
2024-02-29T06:38:50.162Z,93.25
2024-02-29T06:39:21.924Z,93.45
2024-02-29T06:39:58.272Z,93.42
2024-02-29T06:40:30.101Z,93.25
2024-02-29T06:41:01.966Z,93.42
2024-02-29T06:41:33.876Z,93.56
2024-02-29T06:42:06.181Z,93.75
2024-02-29T06:42:38.773Z,93.89
2024-02-29T06:43:10.632Z,93.79
2024-02-29T06:43:42.493Z,93.69
2024-02-29T06:44:15.050Z,93.72
2024-02-29T06:44:46.888Z,93.70
2024-02-29T06:45:18.678Z,93.39
2024-02-29T06:45:51.549Z,93.52
2024-02-29T06:46:23.416Z,93.69
2024-02-29T06:46:55.259Z,93.70
2024-02-29T06:47:27.194Z,93.55
2024-02-29T06:47:59.372Z,93.29
2024-02-29T06:48:31.216Z,93.17
2024-02-29T06:49:03.966Z,93.38
2024-02-29T06:49:35.802Z,93.31
2024-02-29T06:50:08.292Z,93.26
2024-02-29T06:50:40.074Z,93.28
2024-02-29T06:51:11.869Z,92.90
2024-02-29T06:51:43.775Z,93.05
2024-02-29T06:52:16.076Z,93.04
2024-02-29T06:52:48.559Z,92.94
2024-02-29T06:53:21.059Z,93.01
2024-02-29T06:53:52.843Z,93.11
2024-02-29T06:54:25.030Z,93.18
2024-02-29T06:54:56.901Z,93.10
2024-02-29T06:55:28.922Z,92.72